sensor_id;sensor_type;location;lat;lon;timestamp;P1;durP1;ratioP1;P2;durP2;ratioP2
74908;SDS011;63468;52.058;4.824;2023-08-24T00:02:10;11.05;;;7.30;;
74908;SDS011;63468;52.058;4.824;2023-08-24T00:04:35;14.20;;;7.65;;
74908;SDS011;63468;52.058;4.824;2023-08-24T00:07:01;12.20;;;7.03;;
74908;SDS011;63468;52.058;4.824;2023-08-24T00:09:26;10.88;;;7.00;;
74908;SDS011;63468;52.058;4.824;2023-08-24T00:11:52;12.27;;;6.78;;
74908;SDS011;63468;52.058;4.824;2023-08-24T00:14:18;13.98;;;7.25;;
74908;SDS011;63468;52.058;4.824;2023-08-24T00:16:43;17.10;;;7.57;;
74908;SDS011;63468;52.058;4.824;2023-08-24T00:19:08;11.30;;;6.63;;
74908;SDS011;63468;52.058;4.824;2023-08-24T00:21:34;15.60;;;8.30;;
74908;SDS011;63468;52.058;4.824;2023-08-24T00:23:59;14.27;;;7.40;;
74908;SDS011;63468;52.058;4.824;2023-08-24T00:26:24;13.45;;;7.85;;
74908;SDS011;63468;52.058;4.824;2023-08-24T00:28:50;13.60;;;8.60;;
74908;SDS011;63468;52.058;4.824;2023-08-24T00:31:15;12.77;;;8.23;;
74908;SDS011;63468;52.058;4.824;2023-08-24T00:33:41;12.30;;;7.90;;
74908;SDS011;63468;52.058;4.824;2023-08-24T00:36:06;13.82;;;7.72;;
74908;SDS011;63468;52.058;4.824;2023-08-24T00:38:32;14.32;;;7.72;;
74908;SDS011;63468;52.058;4.824;2023-08-24T00:40:58;16.58;;;8.73;;
74908;SDS011;63468;52.058;4.824;2023-08-24T00:43:25;16.25;;;7.60;;
74908;SDS011;63468;52.058;4.824;2023-08-24T00:45:51;11.63;;;7.70;;
74908;SDS011;63468;52.058;4.824;2023-08-24T00:48:20;15.05;;;7.55;;
74908;SDS011;63468;52.058;4.824;2023-08-24T00:50:46;12.32;;;7.93;;
74908;SDS011;63468;52.058;4.824;2023-08-24T00:53:11;13.38;;;7.93;;
74908;SDS011;63468;52.058;4.824;2023-08-24T00:55:37;13.77;;;8.07;;
74908;SDS011;63468;52.058;4.824;2023-08-24T00:58:02;11.80;;;8.30;;
74908;SDS011;63468;52.058;4.824;2023-08-24T01:00:28;13.32;;;7.43;;
74908;SDS011;63468;52.058;4.824;2023-08-24T01:02:53;11.77;;;7.22;;
74908;SDS011;63468;52.058;4.824;2023-08-24T01:05:19;12.73;;;7.32;;
74908;SDS011;63468;52.058;4.824;2023-08-24T01:07:44;11.27;;;7.72;;
74908;SDS011;63468;52.058;4.824;2023-08-24T01:10:10;14.75;;;8.43;;
74908;SDS011;63468;52.058;4.824;2023-08-24T01:15:13;14.15;;;7.72;;
74908;SDS011;63468;52.058;4.824;2023-08-24T01:17:42;13.07;;;7.53;;
74908;SDS011;63468;52.058;4.824;2023-08-24T01:20:08;16.35;;;8.30;;
74908;SDS011;63468;52.058;4.824;2023-08-24T01:22:44;14.05;;;7.05;;
74908;SDS011;63468;52.058;4.824;2023-08-24T01:28:12;11.93;;;7.38;;
74908;SDS011;63468;52.058;4.824;2023-08-24T01:30:38;11.40;;;7.30;;
74908;SDS011;63468;52.058;4.824;2023-08-24T01:33:03;13.95;;;7.93;;
74908;SDS011;63468;52.058;4.824;2023-08-24T01:35:36;12.80;;;7.13;;
74908;SDS011;63468;52.058;4.824;2023-08-24T01:38:02;11.93;;;7.10;;
74908;SDS011;63468;52.058;4.824;2023-08-24T01:40:36;15.30;;;8.57;;
74908;SDS011;63468;52.058;4.824;2023-08-24T01:43:09;12.88;;;7.47;;
74908;SDS011;63468;52.058;4.824;2023-08-24T01:45:34;11.88;;;8.35;;
74908;SDS011;63468;52.058;4.824;2023-08-24T01:48:00;13.80;;;9.38;;
74908;SDS011;63468;52.058;4.824;2023-08-24T01:50:30;14.43;;;9.38;;
74908;SDS011;63468;52.058;4.824;2023-08-24T01:52:56;17.42;;;9.75;;
74908;SDS011;63468;52.058;4.824;2023-08-24T01:55:22;16.65;;;9.95;;
74908;SDS011;63468;52.058;4.824;2023-08-24T01:57:48;13.45;;;10.80;;
74908;SDS011;63468;52.058;4.824;2023-08-24T02:00:14;14.65;;;10.52;;
74908;SDS011;63468;52.058;4.824;2023-08-24T02:02:39;18.27;;;12.23;;
74908;SDS011;63468;52.058;4.824;2023-08-24T02:05:05;15.65;;;13.60;;
74908;SDS011;63468;52.058;4.824;2023-08-24T02:07:30;15.95;;;13.40;;
74908;SDS011;63468;52.058;4.824;2023-08-24T02:09:56;15.23;;;13.25;;
74908;SDS011;63468;52.058;4.824;2023-08-24T02:12:21;15.95;;;13.75;;
74908;SDS011;63468;52.058;4.824;2023-08-24T02:14:46;16.00;;;12.68;;
74908;SDS011;63468;52.058;4.824;2023-08-24T02:17:12;14.77;;;13.20;;
74908;SDS011;63468;52.058;4.824;2023-08-24T02:19:37;15.80;;;13.05;;
74908;SDS011;63468;52.058;4.824;2023-08-24T02:22:03;21.42;;;13.57;;
74908;SDS011;63468;52.058;4.824;2023-08-24T02:24:28;15.48;;;12.25;;
74908;SDS011;63468;52.058;4.824;2023-08-24T02:26:54;21.05;;;13.35;;
74908;SDS011;63468;52.058;4.824;2023-08-24T02:29:19;18.38;;;12.38;;
74908;SDS011;63468;52.058;4.824;2023-08-24T02:31:44;20.95;;;13.10;;
74908;SDS011;63468;52.058;4.824;2023-08-24T02:34:10;15.90;;;12.65;;
74908;SDS011;63468;52.058;4.824;2023-08-24T02:36:35;15.15;;;12.98;;
74908;SDS011;63468;52.058;4.824;2023-08-24T02:39:00;15.80;;;14.20;;
74908;SDS011;63468;52.058;4.824;2023-08-24T02:41:26;14.90;;;12.88;;
74908;SDS011;63468;52.058;4.824;2023-08-24T02:43:52;18.17;;;13.48;;
74908;SDS011;63468;52.058;4.824;2023-08-24T02:46:17;15.27;;;12.77;;
74908;SDS011;63468;52.058;4.824;2023-08-24T02:48:43;17.05;;;12.18;;
74908;SDS011;63468;52.058;4.824;2023-08-24T02:51:09;18.80;;;12.73;;
74908;SDS011;63468;52.058;4.824;2023-08-24T02:53:35;19.88;;;13.90;;
74908;SDS011;63468;52.058;4.824;2023-08-24T02:56:01;17.33;;;13.63;;
74908;SDS011;63468;52.058;4.824;2023-08-24T02:58:27;16.92;;;13.80;;
74908;SDS011;63468;52.058;4.824;2023-08-24T03:00:52;17.25;;;12.65;;
74908;SDS011;63468;52.058;4.824;2023-08-24T03:03:17;18.33;;;13.68;;
74908;SDS011;63468;52.058;4.824;2023-08-24T03:05:56;19.80;;;13.32;;
74908;SDS011;63468;52.058;4.824;2023-08-24T03:10:50;15.07;;;13.40;;
74908;SDS011;63468;52.058;4.824;2023-08-24T03:13:15;16.67;;;13.07;;
74908;SDS011;63468;52.058;4.824;2023-08-24T03:15:41;15.05;;;12.30;;
74908;SDS011;63468;52.058;4.824;2023-08-24T03:18:06;16.60;;;12.77;;
74908;SDS011;63468;52.058;4.824;2023-08-24T03:20:32;16.17;;;12.23;;
74908;SDS011;63468;52.058;4.824;2023-08-24T03:22:57;18.58;;;13.00;;
74908;SDS011;63468;52.058;4.824;2023-08-24T03:25:24;16.27;;;13.32;;
74908;SDS011;63468;52.058;4.824;2023-08-24T03:27:49;22.55;;;13.80;;
74908;SDS011;63468;52.058;4.824;2023-08-24T03:30:15;15.10;;;13.20;;
74908;SDS011;63468;52.058;4.824;2023-08-24T03:32:40;16.33;;;12.70;;
74908;SDS011;63468;52.058;4.824;2023-08-24T03:35:06;19.25;;;12.80;;
74908;SDS011;63468;52.058;4.824;2023-08-24T03:37:32;16.13;;;12.93;;
74908;SDS011;63468;52.058;4.824;2023-08-24T03:39:57;18.10;;;13.05;;
74908;SDS011;63468;52.058;4.824;2023-08-24T03:42:22;17.27;;;13.40;;
74908;SDS011;63468;52.058;4.824;2023-08-24T03:44:48;17.77;;;13.70;;
74908;SDS011;63468;52.058;4.824;2023-08-24T03:47:15;18.15;;;13.52;;
74908;SDS011;63468;52.058;4.824;2023-08-24T03:49:43;18.00;;;12.85;;
74908;SDS011;63468;52.058;4.824;2023-08-24T03:52:09;15.60;;;12.60;;
74908;SDS011;63468;52.058;4.824;2023-08-24T03:54:34;17.55;;;12.52;;
74908;SDS011;63468;52.058;4.824;2023-08-24T03:57:00;16.20;;;11.45;;
74908;SDS011;63468;52.058;4.824;2023-08-24T03:59:26;16.13;;;13.65;;
74908;SDS011;63468;52.058;4.824;2023-08-24T04:01:51;19.88;;;13.45;;
74908;SDS011;63468;52.058;4.824;2023-08-24T04:04:17;19.67;;;13.85;;
74908;SDS011;63468;52.058;4.824;2023-08-24T04:06:42;16.70;;;12.68;;
74908;SDS011;63468;52.058;4.824;2023-08-24T04:09:08;17.42;;;14.70;;
74908;SDS011;63468;52.058;4.824;2023-08-24T04:11:35;18.75;;;13.63;;
74908;SDS011;63468;52.058;4.824;2023-08-24T04:14:01;19.95;;;14.18;;
74908;SDS011;63468;52.058;4.824;2023-08-24T04:16:26;19.20;;;13.95;;
74908;SDS011;63468;52.058;4.824;2023-08-24T04:18:51;17.85;;;13.07;;
74908;SDS011;63468;52.058;4.824;2023-08-24T04:21:17;18.13;;;13.05;;
74908;SDS011;63468;52.058;4.824;2023-08-24T04:23:42;20.08;;;13.65;;
74908;SDS011;63468;52.058;4.824;2023-08-24T04:26:10;17.98;;;12.88;;
74908;SDS011;63468;52.058;4.824;2023-08-24T04:28:36;20.60;;;13.35;;
74908;SDS011;63468;52.058;4.824;2023-08-24T04:31:02;17.77;;;13.65;;
74908;SDS011;63468;52.058;4.824;2023-08-24T04:33:27;18.60;;;12.80;;
74908;SDS011;63468;52.058;4.824;2023-08-24T04:35:53;20.50;;;14.10;;
74908;SDS011;63468;52.058;4.824;2023-08-24T04:38:18;23.67;;;14.15;;
74908;SDS011;63468;52.058;4.824;2023-08-24T04:40:54;23.55;;;13.95;;
74908;SDS011;63468;52.058;4.824;2023-08-24T04:43:21;20.88;;;14.13;;
74908;SDS011;63468;52.058;4.824;2023-08-24T04:45:47;18.95;;;14.32;;
74908;SDS011;63468;52.058;4.824;2023-08-24T04:48:13;23.45;;;14.35;;
74908;SDS011;63468;52.058;4.824;2023-08-24T04:50:39;18.95;;;13.98;;
74908;SDS011;63468;52.058;4.824;2023-08-24T04:53:06;18.70;;;13.95;;
74908;SDS011;63468;52.058;4.824;2023-08-24T04:55:32;25.75;;;14.98;;
74908;SDS011;63468;52.058;4.824;2023-08-24T04:57:57;21.35;;;14.75;;
74908;SDS011;63468;52.058;4.824;2023-08-24T05:00:22;23.10;;;15.25;;
74908;SDS011;63468;52.058;4.824;2023-08-24T05:02:48;22.55;;;16.77;;
74908;SDS011;63468;52.058;4.824;2023-08-24T05:05:18;26.73;;;15.30;;
74908;SDS011;63468;52.058;4.824;2023-08-24T05:07:46;20.52;;;15.30;;
74908;SDS011;63468;52.058;4.824;2023-08-24T05:10:11;25.65;;;16.30;;
74908;SDS011;63468;52.058;4.824;2023-08-24T05:12:37;23.35;;;16.55;;
74908;SDS011;63468;52.058;4.824;2023-08-24T05:15:02;23.58;;;16.50;;
74908;SDS011;63468;52.058;4.824;2023-08-24T05:17:29;23.50;;;16.60;;
74908;SDS011;63468;52.058;4.824;2023-08-24T05:19:54;21.00;;;16.40;;
74908;SDS011;63468;52.058;4.824;2023-08-24T05:22:20;27.52;;;16.42;;
74908;SDS011;63468;52.058;4.824;2023-08-24T05:24:45;25.88;;;18.17;;
74908;SDS011;63468;52.058;4.824;2023-08-24T05:27:11;22.85;;;16.73;;
74908;SDS011;63468;52.058;4.824;2023-08-24T05:29:36;25.40;;;16.65;;
74908;SDS011;63468;52.058;4.824;2023-08-24T05:32:02;21.08;;;17.13;;
74908;SDS011;63468;52.058;4.824;2023-08-24T05:34:27;22.70;;;17.55;;
74908;SDS011;63468;52.058;4.824;2023-08-24T05:36:53;26.40;;;17.95;;
74908;SDS011;63468;52.058;4.824;2023-08-24T05:39:18;23.08;;;17.27;;
74908;SDS011;63468;52.058;4.824;2023-08-24T05:41:44;23.13;;;18.63;;
74908;SDS011;63468;52.058;4.824;2023-08-24T05:44:09;22.17;;;18.38;;
74908;SDS011;63468;52.058;4.824;2023-08-24T05:46:34;26.65;;;17.10;;
74908;SDS011;63468;52.058;4.824;2023-08-24T05:49:00;24.48;;;16.40;;
74908;SDS011;63468;52.058;4.824;2023-08-24T05:51:25;24.38;;;17.10;;
74908;SDS011;63468;52.058;4.824;2023-08-24T05:53:50;21.00;;;16.55;;
74908;SDS011;63468;52.058;4.824;2023-08-24T05:56:20;19.58;;;16.08;;
74908;SDS011;63468;52.058;4.824;2023-08-24T05:58:48;19.40;;;16.80;;
74908;SDS011;63468;52.058;4.824;2023-08-24T06:01:13;20.48;;;15.63;;
74908;SDS011;63468;52.058;4.824;2023-08-24T06:03:39;21.35;;;15.90;;
74908;SDS011;63468;52.058;4.824;2023-08-24T06:06:04;22.13;;;16.30;;
74908;SDS011;63468;52.058;4.824;2023-08-24T06:08:30;20.33;;;15.60;;
74908;SDS011;63468;52.058;4.824;2023-08-24T06:10:56;20.70;;;16.63;;
74908;SDS011;63468;52.058;4.824;2023-08-24T06:13:22;21.20;;;16.35;;
74908;SDS011;63468;52.058;4.824;2023-08-24T06:15:47;25.25;;;17.30;;
74908;SDS011;63468;52.058;4.824;2023-08-24T06:18:13;20.65;;;16.38;;
74908;SDS011;63468;52.058;4.824;2023-08-24T06:20:38;23.60;;;17.83;;
74908;SDS011;63468;52.058;4.824;2023-08-24T06:23:04;22.92;;;16.67;;
74908;SDS011;63468;52.058;4.824;2023-08-24T06:25:30;22.73;;;16.50;;
74908;SDS011;63468;52.058;4.824;2023-08-24T06:27:56;22.60;;;17.10;;
74908;SDS011;63468;52.058;4.824;2023-08-24T06:30:23;25.17;;;17.23;;
74908;SDS011;63468;52.058;4.824;2023-08-24T06:32:49;21.75;;;16.52;;
74908;SDS011;63468;52.058;4.824;2023-08-24T06:35:14;23.80;;;16.98;;
74908;SDS011;63468;52.058;4.824;2023-08-24T06:37:40;22.95;;;16.98;;
74908;SDS011;63468;52.058;4.824;2023-08-24T06:40:05;21.05;;;16.67;;
74908;SDS011;63468;52.058;4.824;2023-08-24T06:42:31;18.48;;;14.80;;
74908;SDS011;63468;52.058;4.824;2023-08-24T06:44:56;20.52;;;16.45;;
74908;SDS011;63468;52.058;4.824;2023-08-24T06:47:22;22.77;;;15.50;;
74908;SDS011;63468;52.058;4.824;2023-08-24T06:49:47;21.75;;;15.85;;
74908;SDS011;63468;52.058;4.824;2023-08-24T06:52:12;24.70;;;15.88;;
74908;SDS011;63468;52.058;4.824;2023-08-24T06:54:38;23.67;;;16.90;;
74908;SDS011;63468;52.058;4.824;2023-08-24T06:57:03;21.80;;;14.90;;
74908;SDS011;63468;52.058;4.824;2023-08-24T06:59:29;22.25;;;16.90;;
74908;SDS011;63468;52.058;4.824;2023-08-24T07:01:54;21.90;;;15.52;;
74908;SDS011;63468;52.058;4.824;2023-08-24T07:04:19;22.90;;;15.82;;
74908;SDS011;63468;52.058;4.824;2023-08-24T07:06:45;23.75;;;15.45;;
74908;SDS011;63468;52.058;4.824;2023-08-24T07:09:11;24.63;;;15.77;;
74908;SDS011;63468;52.058;4.824;2023-08-24T07:11:36;21.48;;;16.08;;
74908;SDS011;63468;52.058;4.824;2023-08-24T07:14:02;22.42;;;16.33;;
74908;SDS011;63468;52.058;4.824;2023-08-24T07:16:27;24.65;;;17.65;;
74908;SDS011;63468;52.058;4.824;2023-08-24T07:18:52;22.77;;;15.90;;
74908;SDS011;63468;52.058;4.824;2023-08-24T07:21:18;20.95;;;16.08;;
74908;SDS011;63468;52.058;4.824;2023-08-24T07:23:43;20.52;;;16.13;;
74908;SDS011;63468;52.058;4.824;2023-08-24T07:26:09;19.63;;;15.48;;
74908;SDS011;63468;52.058;4.824;2023-08-24T07:28:34;21.67;;;15.70;;
74908;SDS011;63468;52.058;4.824;2023-08-24T07:31:06;23.40;;;16.65;;
74908;SDS011;63468;52.058;4.824;2023-08-24T07:33:35;22.83;;;16.45;;
74908;SDS011;63468;52.058;4.824;2023-08-24T07:36:03;22.25;;;15.73;;
74908;SDS011;63468;52.058;4.824;2023-08-24T07:38:29;22.75;;;15.20;;
74908;SDS011;63468;52.058;4.824;2023-08-24T07:40:54;19.35;;;14.32;;
74908;SDS011;63468;52.058;4.824;2023-08-24T07:43:20;19.63;;;14.82;;
74908;SDS011;63468;52.058;4.824;2023-08-24T07:45:45;19.63;;;15.05;;
74908;SDS011;63468;52.058;4.824;2023-08-24T07:48:10;22.35;;;14.68;;
74908;SDS011;63468;52.058;4.824;2023-08-24T07:50:36;25.77;;;15.32;;
74908;SDS011;63468;52.058;4.824;2023-08-24T07:53:01;20.08;;;14.13;;
74908;SDS011;63468;52.058;4.824;2023-08-24T07:55:26;18.00;;;14.25;;
74908;SDS011;63468;52.058;4.824;2023-08-24T07:57:51;24.35;;;15.23;;
74908;SDS011;63468;52.058;4.824;2023-08-24T08:00:17;18.02;;;13.90;;
74908;SDS011;63468;52.058;4.824;2023-08-24T08:02:42;18.90;;;14.35;;
74908;SDS011;63468;52.058;4.824;2023-08-24T08:05:08;17.15;;;13.82;;
74908;SDS011;63468;52.058;4.824;2023-08-24T08:07:35;20.30;;;13.88;;
74908;SDS011;63468;52.058;4.824;2023-08-24T08:10:00;20.65;;;13.82;;
74908;SDS011;63468;52.058;4.824;2023-08-24T08:12:25;21.92;;;13.88;;
74908;SDS011;63468;52.058;4.824;2023-08-24T08:14:51;19.42;;;13.27;;
74908;SDS011;63468;52.058;4.824;2023-08-24T08:17:16;18.77;;;13.27;;
74908;SDS011;63468;52.058;4.824;2023-08-24T08:19:41;19.48;;;13.82;;
74908;SDS011;63468;52.058;4.824;2023-08-24T08:22:07;20.45;;;13.73;;
74908;SDS011;63468;52.058;4.824;2023-08-24T08:24:33;20.13;;;13.10;;
74908;SDS011;63468;52.058;4.824;2023-08-24T08:26:58;16.70;;;13.02;;
74908;SDS011;63468;52.058;4.824;2023-08-24T08:29:24;20.90;;;14.07;;
74908;SDS011;63468;52.058;4.824;2023-08-24T08:31:49;21.65;;;14.32;;
74908;SDS011;63468;52.058;4.824;2023-08-24T08:34:14;19.13;;;15.10;;
74908;SDS011;63468;52.058;4.824;2023-08-24T08:36:40;18.48;;;13.95;;
74908;SDS011;63468;52.058;4.824;2023-08-24T08:39:05;18.77;;;14.18;;
74908;SDS011;63468;52.058;4.824;2023-08-24T08:41:33;20.55;;;14.95;;
74908;SDS011;63468;52.058;4.824;2023-08-24T08:44:04;17.08;;;14.02;;
74908;SDS011;63468;52.058;4.824;2023-08-24T08:46:30;18.83;;;14.88;;
74908;SDS011;63468;52.058;4.824;2023-08-24T08:48:57;17.27;;;13.13;;
74908;SDS011;63468;52.058;4.824;2023-08-24T08:51:24;21.90;;;14.93;;
74908;SDS011;63468;52.058;4.824;2023-08-24T08:53:49;20.75;;;14.63;;
74908;SDS011;63468;52.058;4.824;2023-08-24T08:56:15;18.83;;;14.48;;
74908;SDS011;63468;52.058;4.824;2023-08-24T08:58:41;21.20;;;16.38;;
74908;SDS011;63468;52.058;4.824;2023-08-24T09:01:08;20.00;;;15.38;;
74908;SDS011;63468;52.058;4.824;2023-08-24T09:03:33;19.98;;;15.13;;
74908;SDS011;63468;52.058;4.824;2023-08-24T09:05:59;20.73;;;15.57;;
74908;SDS011;63468;52.058;4.824;2023-08-24T09:08:28;19.17;;;15.57;;
74908;SDS011;63468;52.058;4.824;2023-08-24T09:10:54;18.58;;;15.95;;
74908;SDS011;63468;52.058;4.824;2023-08-24T09:13:20;19.05;;;14.93;;
74908;SDS011;63468;52.058;4.824;2023-08-24T09:15:46;18.27;;;15.23;;
74908;SDS011;63468;52.058;4.824;2023-08-24T09:18:11;23.23;;;16.60;;
74908;SDS011;63468;52.058;4.824;2023-08-24T09:20:36;19.52;;;16.17;;
74908;SDS011;63468;52.058;4.824;2023-08-24T09:23:02;19.98;;;15.65;;
74908;SDS011;63468;52.058;4.824;2023-08-24T09:25:28;20.23;;;15.77;;
74908;SDS011;63468;52.058;4.824;2023-08-24T09:27:57;19.33;;;14.73;;
74908;SDS011;63468;52.058;4.824;2023-08-24T09:30:32;19.65;;;15.18;;
74908;SDS011;63468;52.058;4.824;2023-08-24T09:33:17;21.98;;;16.60;;
74908;SDS011;63468;52.058;4.824;2023-08-24T09:35:43;19.48;;;17.00;;
74908;SDS011;63468;52.058;4.824;2023-08-24T09:38:18;22.02;;;15.63;;
74908;SDS011;63468;52.058;4.824;2023-08-24T09:40:48;21.17;;;15.23;;
74908;SDS011;63468;52.058;4.824;2023-08-24T09:43:18;20.80;;;14.63;;
74908;SDS011;63468;52.058;4.824;2023-08-24T09:45:51;18.42;;;13.82;;
74908;SDS011;63468;52.058;4.824;2023-08-24T09:48:17;18.80;;;13.35;;
74908;SDS011;63468;52.058;4.824;2023-08-24T09:50:46;20.20;;;14.10;;
74908;SDS011;63468;52.058;4.824;2023-08-24T09:53:20;18.05;;;14.25;;
74908;SDS011;63468;52.058;4.824;2023-08-24T09:55:59;19.67;;;13.18;;
74908;SDS011;63468;52.058;4.824;2023-08-24T09:58:25;22.38;;;13.68;;
74908;SDS011;63468;52.058;4.824;2023-08-24T10:00:50;17.70;;;14.27;;
74908;SDS011;63468;52.058;4.824;2023-08-24T10:03:18;16.58;;;13.73;;
74908;SDS011;63468;52.058;4.824;2023-08-24T10:08:16;27.02;;;15.10;;
74908;SDS011;63468;52.058;4.824;2023-08-24T10:10:44;19.77;;;15.25;;
74908;SDS011;63468;52.058;4.824;2023-08-24T10:13:14;19.52;;;15.13;;
74908;SDS011;63468;52.058;4.824;2023-08-24T10:15:44;22.10;;;13.98;;
74908;SDS011;63468;52.058;4.824;2023-08-24T10:18:11;22.13;;;16.05;;
74908;SDS011;63468;52.058;4.824;2023-08-24T10:20:38;21.95;;;16.45;;
74908;SDS011;63468;52.058;4.824;2023-08-24T10:23:04;24.23;;;16.23;;
74908;SDS011;63468;52.058;4.824;2023-08-24T10:25:29;21.42;;;14.93;;
74908;SDS011;63468;52.058;4.824;2023-08-24T10:27:55;19.58;;;16.08;;
74908;SDS011;63468;52.058;4.824;2023-08-24T10:30:21;23.95;;;16.08;;
74908;SDS011;63468;52.058;4.824;2023-08-24T10:32:46;26.60;;;18.65;;
74908;SDS011;63468;52.058;4.824;2023-08-24T10:35:13;24.15;;;18.98;;
74908;SDS011;63468;52.058;4.824;2023-08-24T10:37:40;22.63;;;19.98;;
74908;SDS011;63468;52.058;4.824;2023-08-24T10:40:06;24.40;;;20.98;;
74908;SDS011;63468;52.058;4.824;2023-08-24T10:42:45;26.73;;;22.20;;
74908;SDS011;63468;52.058;4.824;2023-08-24T10:45:14;25.73;;;22.67;;
74908;SDS011;63468;52.058;4.824;2023-08-24T10:47:44;25.33;;;22.50;;
74908;SDS011;63468;52.058;4.824;2023-08-24T10:50:10;26.98;;;23.85;;
74908;SDS011;63468;52.058;4.824;2023-08-24T10:52:37;28.45;;;23.67;;
74908;SDS011;63468;52.058;4.824;2023-08-24T10:55:04;27.05;;;24.40;;
74908;SDS011;63468;52.058;4.824;2023-08-24T10:57:38;30.13;;;23.60;;
74908;SDS011;63468;52.058;4.824;2023-08-24T11:00:07;29.25;;;22.65;;
74908;SDS011;63468;52.058;4.824;2023-08-24T11:07:52;26.20;;;20.95;;
74908;SDS011;63468;52.058;4.824;2023-08-24T11:10:19;24.80;;;20.17;;
74908;SDS011;63468;52.058;4.824;2023-08-24T11:15:32;27.35;;;19.27;;
74908;SDS011;63468;52.058;4.824;2023-08-24T11:20:53;22.88;;;18.65;;
74908;SDS011;63468;52.058;4.824;2023-08-24T11:23:24;25.40;;;19.58;;
74908;SDS011;63468;52.058;4.824;2023-08-24T11:25:51;23.15;;;19.67;;
74908;SDS011;63468;52.058;4.824;2023-08-24T11:28:21;27.10;;;20.90;;
74908;SDS011;63468;52.058;4.824;2023-08-24T11:30:47;26.10;;;19.20;;
74908;SDS011;63468;52.058;4.824;2023-08-24T11:33:13;22.98;;;19.83;;
74908;SDS011;63468;52.058;4.824;2023-08-24T11:35:42;25.65;;;20.42;;
74908;SDS011;63468;52.058;4.824;2023-08-24T11:38:09;23.35;;;19.67;;
74908;SDS011;63468;52.058;4.824;2023-08-24T11:40:35;25.35;;;18.52;;
74908;SDS011;63468;52.058;4.824;2023-08-24T11:43:00;27.83;;;21.35;;
74908;SDS011;63468;52.058;4.824;2023-08-24T11:45:32;26.33;;;21.42;;
74908;SDS011;63468;52.058;4.824;2023-08-24T11:47:59;51.90;;;35.90;;
74908;SDS011;63468;52.058;4.824;2023-08-24T11:50:27;68.70;;;21.77;;
74908;SDS011;63468;52.058;4.824;2023-08-24T11:52:53;23.75;;;20.38;;
74908;SDS011;63468;52.058;4.824;2023-08-24T11:55:20;23.67;;;20.02;;
74908;SDS011;63468;52.058;4.824;2023-08-24T11:57:46;23.27;;;20.85;;
74908;SDS011;63468;52.058;4.824;2023-08-24T12:00:11;24.67;;;20.45;;
74908;SDS011;63468;52.058;4.824;2023-08-24T12:02:38;21.92;;;17.45;;
74908;SDS011;63468;52.058;4.824;2023-08-24T12:05:08;20.90;;;17.80;;
74908;SDS011;63468;52.058;4.824;2023-08-24T12:07:45;24.45;;;19.25;;
74908;SDS011;63468;52.058;4.824;2023-08-24T12:10:10;24.10;;;18.83;;
74908;SDS011;63468;52.058;4.824;2023-08-24T12:12:37;28.45;;;19.52;;
74908;SDS011;63468;52.058;4.824;2023-08-24T12:15:02;28.50;;;18.30;;
74908;SDS011;63468;52.058;4.824;2023-08-24T12:17:28;25.55;;;19.65;;
74908;SDS011;63468;52.058;4.824;2023-08-24T12:19:57;24.52;;;18.33;;
74908;SDS011;63468;52.058;4.824;2023-08-24T12:22:24;20.67;;;16.50;;
74908;SDS011;63468;52.058;4.824;2023-08-24T12:24:49;21.77;;;17.85;;
74908;SDS011;63468;52.058;4.824;2023-08-24T12:27:33;21.10;;;16.73;;
74908;SDS011;63468;52.058;4.824;2023-08-24T12:30:01;22.80;;;18.00;;
74908;SDS011;63468;52.058;4.824;2023-08-24T12:32:30;21.58;;;18.35;;
74908;SDS011;63468;52.058;4.824;2023-08-24T12:35:07;24.55;;;19.48;;
74908;SDS011;63468;52.058;4.824;2023-08-24T12:37:33;23.42;;;19.48;;
74908;SDS011;63468;52.058;4.824;2023-08-24T12:40:01;18.90;;;16.90;;
74908;SDS011;63468;52.058;4.824;2023-08-24T12:42:27;20.77;;;17.10;;
74908;SDS011;63468;52.058;4.824;2023-08-24T12:44:52;24.70;;;17.50;;
74908;SDS011;63468;52.058;4.824;2023-08-24T12:47:18;24.83;;;18.48;;
74908;SDS011;63468;52.058;4.824;2023-08-24T12:49:43;24.50;;;18.50;;
74908;SDS011;63468;52.058;4.824;2023-08-24T12:52:08;25.92;;;18.65;;
74908;SDS011;63468;52.058;4.824;2023-08-24T12:54:34;22.17;;;18.95;;
74908;SDS011;63468;52.058;4.824;2023-08-24T12:56:59;22.30;;;19.98;;
74908;SDS011;63468;52.058;4.824;2023-08-24T12:59:24;27.55;;;20.60;;
74908;SDS011;63468;52.058;4.824;2023-08-24T13:01:50;22.98;;;19.88;;
74908;SDS011;63468;52.058;4.824;2023-08-24T13:04:15;24.88;;;20.10;;
74908;SDS011;63468;52.058;4.824;2023-08-24T13:06:40;26.63;;;19.45;;
74908;SDS011;63468;52.058;4.824;2023-08-24T13:09:06;22.63;;;18.05;;
74908;SDS011;63468;52.058;4.824;2023-08-24T13:11:31;25.13;;;20.38;;
74908;SDS011;63468;52.058;4.824;2023-08-24T13:13:57;21.48;;;19.02;;
74908;SDS011;63468;52.058;4.824;2023-08-24T13:16:22;23.48;;;20.98;;
74908;SDS011;63468;52.058;4.824;2023-08-24T13:18:48;23.38;;;20.63;;
74908;SDS011;63468;52.058;4.824;2023-08-24T13:21:13;23.05;;;20.42;;
74908;SDS011;63468;52.058;4.824;2023-08-24T13:23:38;25.88;;;19.95;;
74908;SDS011;63468;52.058;4.824;2023-08-24T13:26:04;23.23;;;19.83;;
74908;SDS011;63468;52.058;4.824;2023-08-24T13:28:29;21.75;;;19.45;;
74908;SDS011;63468;52.058;4.824;2023-08-24T13:30:54;26.00;;;19.58;;
74908;SDS011;63468;52.058;4.824;2023-08-24T13:33:20;23.95;;;19.40;;
74908;SDS011;63468;52.058;4.824;2023-08-24T13:35:45;26.75;;;19.65;;
74908;SDS011;63468;52.058;4.824;2023-08-24T13:38:11;24.70;;;19.00;;
74908;SDS011;63468;52.058;4.824;2023-08-24T13:40:36;23.83;;;19.42;;
74908;SDS011;63468;52.058;4.824;2023-08-24T13:43:01;25.98;;;20.80;;
74908;SDS011;63468;52.058;4.824;2023-08-24T13:45:27;27.23;;;18.98;;
74908;SDS011;63468;52.058;4.824;2023-08-24T13:47:55;30.55;;;21.45;;
74908;SDS011;63468;52.058;4.824;2023-08-24T13:50:21;24.75;;;18.85;;
74908;SDS011;63468;52.058;4.824;2023-08-24T13:52:46;25.40;;;19.77;;
74908;SDS011;63468;52.058;4.824;2023-08-24T13:55:11;22.15;;;19.05;;
74908;SDS011;63468;52.058;4.824;2023-08-24T13:57:37;24.42;;;20.30;;
74908;SDS011;63468;52.058;4.824;2023-08-24T14:00:03;25.00;;;19.65;;
74908;SDS011;63468;52.058;4.824;2023-08-24T14:02:29;25.08;;;20.92;;
74908;SDS011;63468;52.058;4.824;2023-08-24T14:04:55;24.85;;;19.75;;
74908;SDS011;63468;52.058;4.824;2023-08-24T14:07:20;26.50;;;20.42;;
74908;SDS011;63468;52.058;4.824;2023-08-24T14:09:46;22.58;;;19.13;;
74908;SDS011;63468;52.058;4.824;2023-08-24T14:12:11;26.27;;;18.27;;
74908;SDS011;63468;52.058;4.824;2023-08-24T14:14:36;24.17;;;19.27;;
74908;SDS011;63468;52.058;4.824;2023-08-24T14:17:02;25.92;;;20.60;;
74908;SDS011;63468;52.058;4.824;2023-08-24T14:19:27;25.13;;;20.63;;
74908;SDS011;63468;52.058;4.824;2023-08-24T14:21:52;25.60;;;19.73;;
74908;SDS011;63468;52.058;4.824;2023-08-24T14:24:18;23.00;;;18.65;;
74908;SDS011;63468;52.058;4.824;2023-08-24T14:26:43;26.17;;;19.58;;
74908;SDS011;63468;52.058;4.824;2023-08-24T14:29:12;22.17;;;19.33;;
74908;SDS011;63468;52.058;4.824;2023-08-24T14:31:38;23.17;;;19.60;;
74908;SDS011;63468;52.058;4.824;2023-08-24T14:34:04;20.58;;;17.83;;
74908;SDS011;63468;52.058;4.824;2023-08-24T14:36:29;22.50;;;18.67;;
74908;SDS011;63468;52.058;4.824;2023-08-24T14:38:55;23.92;;;17.50;;
74908;SDS011;63468;52.058;4.824;2023-08-24T14:41:20;22.67;;;19.23;;